Wetterdaten: Woche 01.05.17 - 07.05.17 (KW18)
Datum Zeit Temp. A. Feuchte A. Luftdruck Regen Wind Richtung Taupunkt Windchill Windben
01.05.2017 00:00 10,4 C 66 % 1014,1 hPa 0,0 l/m 0,8 km/h N 4,2 C 10,4 C 6,0 km/h
01.05.2017 01:00 9,8 C 67 % 1013,6 hPa 0,0 l/m 0,8 km/h N 4,0 C 9,8 C 6,4 km/h
01.05.2017 02:00 9,8 C 68 % 1013,3 hPa 0,0 l/m 1,5 km/h N 4,2 C 9,8 C 8,4 km/h
01.05.2017 03:00 9,9 C 68 % 1012,9 hPa 0,0 l/m 2,3 km/h N 4,3 C 9,9 C 10,9 km/h
01.05.2017 04:00 9,7 C 71 % 1012,9 hPa 0,0 l/m 2,5 km/h N 4,6 C 9,7 C 11,7 km/h
01.05.2017 05:00 9,8 C 71 % 1013,0 hPa 0,0 l/m 2,9 km/h N 4,7 C 9,8 C 11,3 km/h
01.05.2017 06:00 9,6 C 72 % 1013,0 hPa 0,0 l/m 2,1 km/h N 4,8 C 9,6 C 10,9 km/h
01.05.2017 07:00 9,6 C 72 % 1013,1 hPa 0,0 l/m 2,5 km/h N 4,8 C 9,6 C 14,5 km/h
01.05.2017 08:00 9,9 C 73 % 1013,0 hPa 0,0 l/m 3,8 km/h N 5,2 C 9,9 C 15,3 km/h
01.05.2017 09:00 10,9 C 71 % 1013,0 hPa 0,0 l/m 4,2 km/h N 5,9 C 10,9 C 16,1 km/h
01.05.2017 10:00 12,9 C 66 % 1012,5 hPa 0,0 l/m 3,3 km/h N 6,7 C 12,9 C 13,3 km/h
01.05.2017 11:00 15,2 C 61 % 1012,1 hPa 0,0 l/m 3,8 km/h N 7,6 C 15,2 C 11,7 km/h
01.05.2017 12:00 16,6 C 56 % 1011,6 hPa 0,0 l/m 4,5 km/h N 7,6 C 16,6 C 14,5 km/h
01.05.2017 13:00 16,9 C 53 % 1011,2 hPa 0,0 l/m 5,8 km/h N 7,2 C 16,9 C 17,3 km/h
01.05.2017 14:00 17,5 C 51 % 1010,9 hPa 0,0 l/m 4,8 km/h N 7,3 C 17,5 C 18,5 km/h
01.05.2017 15:00 18,0 C 49 % 1010,5 hPa 0,0 l/m 4,4 km/h N 6,9 C 18,0 C 17,7 km/h
01.05.2017 16:00 17,5 C 50 % 1010,4 hPa 0,0 l/m 3,2 km/h N 7,0 C 17,5 C 12,1 km/h
01.05.2017 17:00 17,3 C 51 % 1010,3 hPa 0,0 l/m 3,2 km/h N 7,1 C 17,3 C 15,3 km/h
01.05.2017 18:00 16,8 C 54 % 1010,4 hPa 0,0 l/m 2,8 km/h N 7,3 C 16,8 C 12,9 km/h
01.05.2017 19:00 16,1 C 56 % 1010,8 hPa 0,0 l/m 1,5 km/h N 7,3 C 16,1 C 7,6 km/h
01.05.2017 20:00 14,8 C 61 % 1011,2 hPa 0,0 l/m 0,2 km/h N 7,2 C 14,8 C 2,8 km/h
01.05.2017 21:00 13,1 C 66 % 1011,4 hPa 0,0 l/m 0,1 km/h N 6,9 C 13,1 C 2,0 km/h
01.05.2017 22:00 11,4 C 73 % 1011,9 hPa 0,0 l/m 0,1 km/h N 6,7 C 11,4 C 1,6 km/h
01.05.2017 23:00 9,9 C 77 % 1012,2 hPa 0,0 l/m 0,0 km/h N 6,1 C 9,9 C 0,4 km/h
02.05.2017 00:00 8,8 C 80 % 1012,6 hPa 0,0 l/m 0,0 km/h N 5,5 C 8,8 C 0,4 km/h
02.05.2017 01:00 9,0 C 81 % 1012,9 hPa 0,0 l/m 0,6 km/h N 5,9 C 9,0 C 5,6 km/h
02.05.2017 02:00 9,3 C 75 % 1013,0 hPa 0,0 l/m 2,7 km/h N 5,1 C 9,3 C 9,3 km/h
02.05.2017 03:00 8,6 C 75 % 1013,3 hPa 0,8 l/m 4,5 km/h N 4,3 C 8,6 C 16,1 km/h
02.05.2017 04:00 7,3 C 81 % 1013,6 hPa 0,3 l/m 3,4 km/h N 4,1 C 7,3 C 16,1 km/h
02.05.2017 05:00 6,7 C 82 % 1013,9 hPa 0,3 l/m 4,8 km/h N 3,9 C 6,7 C 17,7 km/h
02.05.2017 06:00 7,0 C 82 % 1014,3 hPa 0,0 l/m 3,8 km/h N 4,1 C 7,0 C 15,3 km/h
02.05.2017 07:00 7,6 C 80 % 1014,8 hPa 0,0 l/m 3,3 km/h N 4,3 C 7,6 C 16,9 km/h
02.05.2017 08:00 8,6 C 76 % 1015,2 hPa 0,0 l/m 5,2 km/h N 4,7 C 8,6 C 16,5 km/h
02.05.2017 09:00 10,5 C 70 % 1015,6 hPa 0,0 l/m 5,3 km/h N 5,3 C 10,4 C 19,7 km/h
02.05.2017 10:00 11,9 C 64 % 1016,0 hPa 0,3 l/m 7,0 km/h N 5,3 C 11,4 C 23,3 km/h
02.05.2017 11:00 13,7 C 60 % 1016,2 hPa 0,0 l/m 5,0 km/h N 5,9 C 13,6 C 20,9 km/h
02.05.2017 12:00 14,3 C 57 % 1016,4 hPa 0,0 l/m 8,6 km/h N 5,8 C 13,1 C 21,3 km/h
02.05.2017 13:00 15,0 C 55 % 1016,4 hPa 0,0 l/m 6,8 km/h N 6,1 C 14,7 C 19,7 km/h
02.05.2017 14:00 15,3 C 53 % 1016,5 hPa 0,0 l/m 1,8 km/h N 5,8 C 15,3 C 9,7 km/h
02.05.2017 15:00 16,0 C 52 % 1016,7 hPa 0,0 l/m 0,1 km/h N 6,2 C 16,0 C 1,2 km/h
02.05.2017 16:00 16,9 C 51 % 1016,8 hPa 0,0 l/m 0,6 km/h N 6,6 C 16,9 C 7,2 km/h
02.05.2017 17:00 16,8 C 51 % 1017,0 hPa 0,0 l/m 0,6 km/h N 6,5 C 16,8 C 6,8 km/h
02.05.2017 18:00 16,6 C 53 % 1017,1 hPa 0,0 l/m 0,4 km/h N 6,9 C 16,6 C 4,4 km/h
02.05.2017 19:00 16,1 C 54 % 1017,1 hPa 0,0 l/m 0,2 km/h N 6,9 C 16,1 C 3,6 km/h
02.05.2017 20:00 14,4 C 59 % 1017,4 hPa 0,0 l/m 0,0 km/h N 6,5 C 14,4 C 0,0 km/h
02.05.2017 21:00 11,3 C 70 % 1017,9 hPa 0,0 l/m 0,0 km/h N 6,0 C 11,3 C 0,0 km/h
02.05.2017 22:00 9,4 C 76 % 1018,2 hPa 0,0 l/m 0,0 km/h N 5,4 C 9,4 C 0,4 km/h
02.05.2017 23:00 8,2 C 80 % 1018,6 hPa 0,0 l/m 0,1 km/h N 4,9 C 8,2 C 0,8 km/h
03.05.2017 00:00 7,4 C 81 % 1018,8 hPa 0,0 l/m 0,0 km/h N 4,4 C 7,4 C 0,0 km/h
03.05.2017 01:00 6,9 C 82 % 1018,7 hPa 0,0 l/m 0,0 km/h N 4,1 C 6,9 C 0,4 km/h
03.05.2017 02:00 6,4 C 83 % 1018,7 hPa 0,0 l/m 0,0 km/h N 3,7 C 6,4 C 1,2 km/h
03.05.2017 03:00 5,7 C 83 % 1018,7 hPa 0,0 l/m 0,0 km/h N 3,0 C 5,7 C 0,4 km/h
03.05.2017 04:00 5,5 C 83 % 1018,6 hPa 0,0 l/m 0,0 km/h N 2,9 C 5,5 C 0,0 km/h
03.05.2017 05:00 5,0 C 83 % 1018,4 hPa 0,0 l/m 0,0 km/h N 2,4 C 5,0 C 0,4 km/h
03.05.2017 06:00 5,1 C 83 % 1018,3 hPa 0,0 l/m 0,0 km/h N 2,4 C 5,1 C 0,0 km/h
03.05.2017 07:00 6,9 C 83 % 1018,2 hPa 0,0 l/m 0,1 km/h N 4,2 C 6,9 C 1,6 km/h
03.05.2017 08:00 10,3 C 82 % 1018,3 hPa 0,0 l/m 0,0 km/h N 7,3 C 10,3 C 0,8 km/h
03.05.2017 09:00 12,8 C 79 % 1018,3 hPa 0,0 l/m 0,1 km/h N 9,3 C 12,8 C 2,4 km/h
03.05.2017 10:00 13,6 C 75 % 1018,4 hPa 0,0 l/m 0,0 km/h N 9,2 C 13,6 C 3,2 km/h
03.05.2017 11:00 14,0 C 75 % 1018,4 hPa 0,0 l/m 0,0 km/h N 9,6 C 14,0 C 1,6 km/h
03.05.2017 12:00 14,2 C 74 % 1018,0 hPa 0,0 l/m 0,0 km/h N 9,6 C 14,2 C 2,0 km/h
03.05.2017 13:00 15,0 C 71 % 1017,5 hPa 0,0 l/m 0,0 km/h N 9,6 C 15,0 C 1,6 km/h
03.05.2017 14:00 15,2 C 71 % 1017,6 hPa 0,0 l/m 0,1 km/h N 10,0 C 15,2 C 2,4 km/h
03.05.2017 15:00 14,3 C 77 % 1017,8 hPa 0,0 l/m 0,0 km/h N 10,3 C 14,3 C 2,0 km/h
03.05.2017 16:00 13,2 C 80 % 1018,0 hPa 0,0 l/m 0,1 km/h N 9,8 C 13,2 C 2,4 km/h
03.05.2017 17:00 12,4 C 82 % 1017,6 hPa 0,0 l/m 0,0 km/h N 9,3 C 12,4 C 0,4 km/h
03.05.2017 18:00 12,1 C 82 % 1016,7 hPa 0,0 l/m 0,0 km/h N 9,1 C 12,1 C 0,8 km/h
03.05.2017 19:00 12,1 C 82 % 1016,1 hPa 0,0 l/m 0,0 km/h N 9,1 C 12,1 C 0,0 km/h
03.05.2017 20:00 11,5 C 82 % 1016,0 hPa 0,0 l/m 0,0 km/h N 8,5 C 11,5 C 0,0 km/h
03.05.2017 21:00 9,6 C 83 % 1016,1 hPa 0,0 l/m 0,0 km/h N 6,7 C 9,6 C 0,4 km/h
03.05.2017 22:00 8,4 C 83 % 1015,8 hPa 0,0 l/m 0,0 km/h N 5,6 C 8,4 C 0,0 km/h
03.05.2017 23:00 7,3 C 83 % 1015,8 hPa 0,0 l/m 0,0 km/h N 4,6 C 7,3 C 0,0 km/h
04.05.2017 00:00 7,3 C 83 % 1015,4 hPa 0,0 l/m 0,0 km/h N 4,7 C 7,3 C 0,8 km/h
04.05.2017 01:00 8,1 C 83 % 1015,4 hPa 0,0 l/m 0,0 km/h N 5,4 C 8,1 C 0,4 km/h
04.05.2017 02:00 7,3 C 83 % 1015,4 hPa 0,0 l/m 0,0 km/h N 4,6 C 7,3 C 1,2 km/h
04.05.2017 03:00 7,2 C 83 % 1015,1 hPa 0,0 l/m 0,1 km/h N 4,5 C 7,2 C 2,8 km/h
04.05.2017 04:00 6,8 C 83 % 1015,4 hPa 0,0 l/m 0,0 km/h N 4,1 C 6,8 C 1,2 km/h
04.05.2017 05:00 6,2 C 83 % 1015,2 hPa 0,0 l/m 0,0 km/h N 3,6 C 6,2 C 0,4 km/h
04.05.2017 06:00 6,3 C 83 % 1015,3 hPa 0,0 l/m 0,0 km/h N 3,7 C 6,3 C 1,2 km/h
04.05.2017 07:00 7,4 C 82 % 1015,1 hPa 3,9 l/m 0,0 km/h N 4,6 C 7,4 C 0,4 km/h
04.05.2017 08:00 8,9 C 82 % 1014,9 hPa 0,0 l/m 0,0 km/h N 6,0 C 8,9 C 0,0 km/h
04.05.2017 09:00 11,5 C 82 % 1014,7 hPa 0,0 l/m 0,4 km/h N 8,5 C 11,5 C 6,0 km/h
04.05.2017 10:00 12,6 C 83 % 1014,7 hPa 0,0 l/m 0,3 km/h N 9,8 C 12,6 C 5,2 km/h
04.05.2017 11:00 14,3 C 82 % 1014,7 hPa 0,0 l/m 0,5 km/h N 11,2 C 14,3 C 5,6 km/h
04.05.2017 12:00 14,8 C 79 % 1014,8 hPa 0,0 l/m 0,5 km/h N 11,1 C 14,8 C 7,6 km/h
04.05.2017 13:00 14,2 C 80 % 1014,6 hPa 0,0 l/m 0,6 km/h N 10,7 C 14,2 C 6,0 km/h
04.05.2017 14:00 14,6 C 78 % 1014,3 hPa 0,0 l/m 1,3 km/h N 10,9 C 14,6 C 7,6 km/h
04.05.2017 15:00 15,0 C 77 % 1013,7 hPa 0,0 l/m 0,4 km/h N 11,0 C 15,0 C 5,2 km/h
04.05.2017 16:00 15,2 C 76 % 1013,1 hPa 0,0 l/m 0,3 km/h N 10,9 C 15,2 C 4,4 km/h
04.05.2017 17:00 15,2 C 76 % 1012,9 hPa 0,0 l/m 0,4 km/h N 11,0 C 15,2 C 5,2 km/h
04.05.2017 18:00 14,4 C 79 % 1013,2 hPa 4,2 l/m 0,0 km/h N 10,8 C 14,4 C 1,2 km/h
04.05.2017 19:00 13,6 C 82 % 1012,4 hPa 0,0 l/m 0,0 km/h N 10,5 C 13,6 C 0,4 km/h
04.05.2017 20:00 12,1 C 82 % 1012,6 hPa 0,0 l/m 0,0 km/h N 9,1 C 12,1 C 0,0 km/h
04.05.2017 21:00 10,5 C 82 % 1012,7 hPa 0,0 l/m 0,0 km/h N 7,6 C 10,5 C 0,0 km/h
04.05.2017 22:00 9,4 C 82 % 1012,8 hPa 0,0 l/m 0,0 km/h N 6,5 C 9,4 C 0,0 km/h
04.05.2017 23:00 8,7 C 82 % 1012,8 hPa 0,0 l/m 0,0 km/h N 5,8 C 8,7 C 0,0 km/h
05.05.2017 00:00 8,3 C 82 % 1013,0 hPa 0,0 l/m 0,0 km/h N 5,4 C 8,3 C 0,8 km/h
05.05.2017 01:00 10,1 C 82 % 1013,5 hPa 0,3 l/m 0,3 km/h N 7,2 C 10,1 C 3,2 km/h
05.05.2017 02:00 10,3 C 82 % 1013,6 hPa 0,0 l/m 1,3 km/h N 7,3 C 10,3 C 9,3 km/h
05.05.2017 03:00 9,9 C 82 % 1013,9 hPa 0,0 l/m 1,0 km/h N 7,0 C 9,9 C 9,3 km/h
05.05.2017 04:00 9,7 C 82 % 1014,2 hPa 0,0 l/m 0,2 km/h N 6,8 C 9,7 C 3,6 km/h
05.05.2017 05:00 9,3 C 82 % 1014,6 hPa 0,0 l/m 0,2 km/h N 6,4 C 9,3 C 4,8 km/h
05.05.2017 06:00 9,8 C 82 % 1015,0 hPa 0,0 l/m 0,1 km/h N 6,9 C 9,8 C 2,8 km/h
05.05.2017 07:00 10,8 C 82 % 1015,4 hPa 0,0 l/m 0,3 km/h N 7,9 C 10,8 C 5,6 km/h
05.05.2017 08:00 12,1 C 81 % 1015,5 hPa 0,0 l/m 1,0 km/h N 8,9 C 12,1 C 10,1 km/h
05.05.2017 09:00 13,4 C 75 % 1015,8 hPa 0,0 l/m 4,1 km/h N 9,0 C 13,4 C 22,1 km/h
05.05.2017 10:00 14,0 C 72 % 1016,3 hPa 0,0 l/m 5,1 km/h N 9,0 C 13,9 C 20,5 km/h
05.05.2017 11:00 13,8 C 72 % 1016,7 hPa 0,0 l/m 3,3 km/h N 8,8 C 13,7 C 14,5 km/h
05.05.2017 12:00 14,6 C 70 % 1016,6 hPa 0,0 l/m 3,8 km/h N 9,2 C 14,6 C 15,7 km/h
05.05.2017 13:00 15,9 C 68 % 1016,1 hPa 0,0 l/m 7,4 km/h N 9,9 C 15,3 C 20,9 km/h
05.05.2017 14:00 16,5 C 65 % 1016,1 hPa 0,0 l/m 8,2 km/h N 10,0 C 15,6 C 23,3 km/h
05.05.2017 15:00 16,5 C 64 % 1015,9 hPa 0,0 l/m 8,3 km/h N 9,6 C 15,5 C 22,1 km/h
05.05.2017 16:00 15,9 C 64 % 1015,7 hPa 0,0 l/m 7,3 km/h N 9,2 C 15,4 C 21,3 km/h
05.05.2017 17:00 15,9 C 64 % 1015,4 hPa 0,0 l/m 8,1 km/h N 9,1 C 15,0 C 21,7 km/h
05.05.2017 18:00 15,4 C 65 % 1015,4 hPa 0,0 l/m 11,4 km/h N 8,9 C 12,9 C 26,1 km/h
05.05.2017 19:00 14,9 C 68 % 1015,4 hPa 0,0 l/m 8,8 km/h N 9,1 C 13,7 C 24,5 km/h
05.05.2017 20:00 14,5 C 69 % 1016,0 hPa 0,0 l/m 9,2 km/h N 8,7 C 12,9 C 24,1 km/h
05.05.2017 21:00 14,1 C 72 % 1016,4 hPa 0,0 l/m 8,7 km/h N 9,2 C 12,8 C 22,1 km/h
05.05.2017 22:00 13,8 C 74 % 1016,8 hPa 0,0 l/m 9,8 km/h N 9,1 C 11,9 C 22,5 km/h
05.05.2017 23:00 13,5 C 75 % 1016,7 hPa 0,0 l/m 8,3 km/h N 9,2 C 12,4 C 21,7 km/h
06.05.2017 00:00 13,2 C 75 % 1016,3 hPa 0,0 l/m 4,0 km/h N 8,9 C 13,2 C 17,3 km/h
06.05.2017 01:00 12,7 C 77 % 1016,2 hPa 0,0 l/m 1,7 km/h N 8,7 C 12,7 C 8,9 km/h
06.05.2017 02:00 12,4 C 77 % 1015,8 hPa 0,0 l/m 3,3 km/h N 8,4 C 12,4 C 11,7 km/h
06.05.2017 03:00 12,1 C 77 % 1015,3 hPa 0,0 l/m 2,9 km/h N 8,2 C 12,1 C 11,7 km/h
06.05.2017 04:00 11,2 C 78 % 1015,0 hPa 0,0 l/m 0,3 km/h N 7,6 C 11,2 C 3,6 km/h
06.05.2017 05:00 10,4 C 80 % 1014,9 hPa 0,0 l/m 0,2 km/h N 7,1 C 10,4 C 4,0 km/h
06.05.2017 06:00 10,0 C 81 % 1015,2 hPa 0,0 l/m 0,0 km/h N 6,9 C 10,0 C 0,4 km/h
06.05.2017 07:00 10,9 C 82 % 1015,3 hPa 0,0 l/m 0,1 km/h N 8,0 C 10,9 C 4,0 km/h
06.05.2017 08:00 12,6 C 80 % 1015,2 hPa 0,0 l/m 0,1 km/h N 9,3 C 12,6 C 2,8 km/h
06.05.2017 09:00 14,9 C 77 % 1014,8 hPa 0,0 l/m 1,4 km/h N 10,8 C 14,9 C 8,0 km/h
06.05.2017 10:00 16,9 C 72 % 1014,1 hPa 0,0 l/m 0,7 km/h N 11,7 C 16,9 C 7,2 km/h
06.05.2017 11:00 18,6 C 68 % 1013,3 hPa 0,0 l/m 1,2 km/h N 12,6 C 18,6 C 8,0 km/h
06.05.2017 12:00 20,2 C 65 % 1012,5 hPa 0,0 l/m 0,9 km/h N 13,3 C 20,2 C 7,6 km/h
06.05.2017 13:00 21,1 C 59 % 1011,5 hPa 0,0 l/m 1,3 km/h N 12,6 C 21,1 C 9,3 km/h
06.05.2017 14:00 21,8 C 57 % 1010,3 hPa 0,0 l/m 1,5 km/h N 12,9 C 21,8 C 11,3 km/h
06.05.2017 15:00 21,4 C 56 % 1009,7 hPa 0,0 l/m 1,8 km/h N 12,1 C 21,4 C 8,8 km/h
06.05.2017 16:00 21,3 C 53 % 1009,0 hPa 0,0 l/m 2,4 km/h N 11,4 C 21,3 C 14,1 km/h
06.05.2017 17:00 21,4 C 49 % 1007,9 hPa 0,0 l/m 2,5 km/h N 10,2 C 21,4 C 9,3 km/h
06.05.2017 18:00 21,3 C 49 % 1006,9 hPa 0,0 l/m 2,3 km/h N 10,2 C 21,3 C 9,3 km/h
06.05.2017 19:00 20,4 C 52 % 1006,6 hPa 0,0 l/m 1,4 km/h N 10,1 C 20,4 C 9,6 km/h
06.05.2017 20:00 19,0 C 56 % 1006,2 hPa 0,0 l/m 0,1 km/h N 10,0 C 19,0 C 2,4 km/h
06.05.2017 21:00 17,3 C 62 % 1006,1 hPa 0,0 l/m 0,1 km/h N 10,0 C 17,3 C 1,6 km/h
06.05.2017 22:00 15,3 C 71 % 1006,0 hPa 0,0 l/m 0,0 km/h N 10,0 C 15,3 C 1,6 km/h
06.05.2017 23:00 14,1 C 76 % 1005,8 hPa 0,0 l/m 0,0 km/h N 9,8 C 14,1 C 0,0 km/h
07.05.2017 00:00 13,2 C 79 % 1005,6 hPa 0,0 l/m 0,0 km/h N 9,6 C 13,2 C 0,0 km/h
07.05.2017 01:00 12,6 C 81 % 1005,0 hPa 0,0 l/m 0,0 km/h N 9,5 C 12,6 C 0,0 km/h
07.05.2017 02:00 12,2 C 82 % 1004,9 hPa 0,0 l/m 0,0 km/h N 9,2 C 12,2 C 1,2 km/h
07.05.2017 03:00 12,3 C 82 % 1005,2 hPa 0,0 l/m 0,0 km/h N 9,3 C 12,3 C 1,6 km/h
07.05.2017 04:00 12,3 C 82 % 1005,6 hPa 0,0 l/m 0,0 km/h N 9,3 C 12,3 C 0,4 km/h
07.05.2017 05:00 12,3 C 82 % 1006,2 hPa 0,0 l/m 0,2 km/h N 9,3 C 12,3 C 3,6 km/h
07.05.2017 06:00 12,7 C 82 % 1006,8 hPa 0,0 l/m 4,0 km/h N 9,7 C 12,7 C 13,3 km/h
07.05.2017 07:00 13,3 C 82 % 1007,4 hPa 0,0 l/m 5,8 km/h N 10,2 C 13,3 C 14,1 km/h
07.05.2017 08:00 14,1 C 80 % 1007,8 hPa 0,0 l/m 5,9 km/h N 10,7 C 14,1 C 17,3 km/h
07.05.2017 09:00 15,1 C 75 % 1008,0 hPa 0,0 l/m 10,4 km/h N 10,6 C 13,2 C 28,1 km/h
07.05.2017 10:00 15,8 C 74 % 1008,6 hPa 0,0 l/m 12,2 km/h N 11,1 C 13,1 C 30,2 km/h
07.05.2017 11:00 16,3 C 73 % 1008,9 hPa 0,0 l/m 12,5 km/h N 11,5 C 13,6 C 31,8 km/h
07.05.2017 12:00 17,2 C 72 % 1009,0 hPa 0,0 l/m 10,1 km/h N 12,0 C 15,5 C 27,0 km/h
07.05.2017 13:00 18,0 C 69 % 1008,4 hPa 0,0 l/m 10,3 km/h N 12,2 C 16,4 C 29,8 km/h
07.05.2017 14:00 17,1 C 70 % 1008,8 hPa 0,0 l/m 11,3 km/h N 11,5 C 15,1 C 31,0 km/h
07.05.2017 15:00 17,2 C 69 % 1008,1 hPa 0,0 l/m 9,8 km/h N 11,5 C 15,7 C 26,2 km/h
07.05.2017 16:00 18,0 C 64 % 1007,6 hPa 0,0 l/m 11,1 km/h N 11,0 C 16,1 C 32,2 km/h
07.05.2017 17:00 16,4 C 71 % 1008,5 hPa 1,0 l/m 9,5 km/h N 11,0 C 15,1 C 30,6 km/h
07.05.2017 18:00 14,5 C 79 % 1008,5 hPa 0,0 l/m 10,4 km/h N 10,9 C 12,4 C 25,4 km/h
07.05.2017 19:00 14,8 C 77 % 1008,4 hPa 0,3 l/m 8,3 km/h N 10,8 C 13,7 C 25,0 km/h
07.05.2017 20:00 14,4 C 77 % 1008,7 hPa 0,0 l/m 9,6 km/h N 10,4 C 12,7 C 24,1 km/h
07.05.2017 21:00 13,5 C 80 % 1009,6 hPa 0,5 l/m 7,2 km/h N 10,1 C 12,7 C 18,9 km/h
07.05.2017 22:00 13,3 C 81 % 1009,4 hPa 0,0 l/m 8,2 km/h N 10,0 C 12,0 C 22,5 km/h
07.05.2017 23:00 13,5 C 80 % 1009,4 hPa 0,0 l/m 8,3 km/h N 10,2 C 12,4 C 20,5 km/h
Min-Datum _ 03.05.17 01.05.17 07.05.17 - 01.05.17 - 03.05.17 03.05.17 01.05.17
_ Min-Zeit 05:30 15:15 02:00 - 21:15 - 05:30 05:30 21:15
Minimum _ 4,9 C 47 % 1004,8 hPa - 0,0 km/h - 2,3 C 4,9 C 0,0 km/h
Max-Datum _ 06.05.17 04.05.17 03.05.17 04.05.17 07.05.17 - 06.05.17 06.05.17 07.05.17
_ Max-Zeit 15:00 10:45 00:00 18:30 10:45 - 12:15 14:45 17:15
Maximum _ 22,4 C 85 % 1018,8 hPa 4,2 l/m 14,8 km/h
N
- 14,0 C 22,2 C 40,2 km/h
N
Durchschnitt _ 12,8 C 73 % 1013,5 hPa #11,7 l/m 2,6 km/h N 7,9 C 12,6 C 9,5 km/h